Time;durP1;ratioP1;P1;durP2;ratioP2;P2;SDS_P1;SDS_P2;PMS_P1;PMS_P2;Temp;Humidity;BMP_temperature;BMP_pressure;BME280_temperature;BME280_humidity;BME280_pressure;Samples;Min_cycle;Max_cycle;Signal;HPM_P1;HPM_P2
2023/05/02 00:01:53;;;;;;;7.97;6.37;;;;;;;11.55;83.29;100603.38;5047786;28;20758;-76
2023/05/02 00:04:20;;;;;;;9.57;6.57;;;;;;;11.69;83.69;100595.63;5042778;28;20218;-72
2023/05/02 00:06:47;;;;;;;13.87;7.47;;;;;;;11.58;83.63;100599.88;5045034;28;20202;-72
2023/05/02 00:09:14;;;;;;;8.77;6.83;;;;;;;11.70;83.65;100592.09;5047028;28;20225;-72
2023/05/02 00:11:41;;;;;;;10.40;7.30;;;;;;;11.63;84.61;100602.63;5045234;28;20221;-73
2023/05/02 00:14:07;;;;;;;9.37;6.97;;;;;;;11.41;85.11;100598.78;5047305;28;20226;-72
2023/05/02 00:16:33;;;;;;;8.10;6.50;;;;;;;11.26;87.37;100589.75;5046244;28;20264;-71
2023/05/02 00:19:00;;;;;;;9.53;6.83;;;;;;;11.28;87.10;100595.97;5030217;28;20279;-69
2023/05/02 00:21:28;;;;;;;7.17;6.33;;;;;;;11.04;88.00;100592.97;5044165;28;20294;-71
2023/05/02 00:23:55;;;;;;;9.23;7.20;;;;;;;10.87;89.25;100600.66;5047312;28;20222;-71
2023/05/02 00:26:22;;;;;;;8.40;6.20;;;;;;;10.70;90.53;100598.59;5046319;28;20244;-69
2023/05/02 00:28:49;;;;;;;9.30;6.83;;;;;;;10.57;91.63;100602.81;5048140;28;20238;-69
2023/05/02 00:31:15;;;;;;;10.37;7.07;;;;;;;10.54;93.09;100610.72;5043263;28;20222;-70
2023/05/02 00:33:42;;;;;;;12.13;8.63;;;;;;;10.64;92.76;100607.34;5048095;28;20198;-69
2023/05/02 00:36:15;;;;;;;9.63;7.80;;;;;;;10.59;92.46;100612.56;5045259;28;20229;-69
2023/05/02 00:38:41;;;;;;;12.73;9.30;;;;;;;10.90;91.38;100611.31;5047480;28;20275;-70
2023/05/02 00:41:08;;;;;;;13.53;9.47;;;;;;;11.21;89.68;100610.03;5042753;28;20227;-69
2023/05/02 00:43:35;;;;;;;13.53;10.03;;;;;;;11.12;90.14;100599.25;5047757;28;20310;-70
2023/05/02 00:46:02;;;;;;;12.07;9.00;;;;;;;11.24;89.63;100604.75;5045594;28;20197;-69
2023/05/02 00:48:29;;;;;;;12.53;8.77;;;;;;;11.13;89.91;100601.03;5043458;28;20292;-69
2023/05/02 00:50:56;;;;;;;11.63;8.90;;;;;;;10.96;90.86;100606.09;5047171;28;20219;-69
2023/05/02 00:53:22;;;;;;;12.13;7.87;;;;;;;10.77;91.63;100606.66;5047147;28;20198;-69
2023/05/02 00:55:49;;;;;;;12.03;8.70;;;;;;;10.90;92.77;100611.31;5042902;28;20293;-69
2023/05/02 00:58:18;;;;;;;13.47;8.57;;;;;;;10.82;92.68;100604.13;5044768;28;20207;-68
2023/05/02 01:01:03;;;;;;;11.70;8.43;;;;;;;10.81;93.56;100613.81;5047169;28;20219;-70
2023/05/02 01:03:50;;;;;;;10.90;8.13;;;;;;;10.72;93.85;100615.41;5047215;28;20245;-68
2023/05/02 01:06:23;;;;;;;13.13;9.53;;;;;;;10.82;93.20;100615.59;5047289;28;20727;-70
2023/05/02 01:08:57;;;;;;;13.57;8.90;;;;;;;10.74;94.28;100603.09;5043925;28;20197;-69
2023/05/02 01:11:38;;;;;;;13.17;9.10;;;;;;;10.59;94.22;100612.56;5048646;28;20220;-69
2023/05/02 01:14:10;;;;;;;12.33;9.07;;;;;;;10.71;94.65;100625.13;5049695;28;20410;-70
2023/05/02 01:16:40;;;;;;;16.83;9.80;;;;;;;10.63;95.12;100629.41;5047869;28;20199;-69
2023/05/02 01:19:24;;;;;;;12.73;9.57;;;;;;;10.57;95.93;100632.84;5045234;28;20213;-69
2023/05/02 01:21:52;;;;;;;14.93;10.10;;;;;;;10.72;95.52;100633.94;5045770;28;20216;-69
2023/05/02 01:24:25;;;;;;;17.47;10.87;;;;;;;10.90;94.68;100626.31;5043921;28;20302;-69
2023/05/02 01:27:05;;;;;;;15.97;10.47;;;;;;;10.93;93.92;100634.31;5044855;28;20637;-69
2023/05/02 01:29:32;;;;;;;17.97;11.27;;;;;;;11.16;93.16;100629.34;5046439;28;20643;-70
2023/05/02 01:32:01;;;;;;;16.97;12.13;;;;;;;11.26;92.57;100645.44;5044912;28;20233;-69
2023/05/02 01:34:30;;;;;;;22.30;15.23;;;;;;;11.55;91.08;100642.28;5045090;28;20735;-69
2023/05/02 01:36:58;;;;;;;20.57;14.50;;;;;;;11.69;89.93;100643.38;5045249;28;20203;-69
2023/05/02 01:39:25;;;;;;;24.30;14.73;;;;;;;11.79;89.72;100647.94;5045090;28;20197;-69
2023/05/02 01:41:55;;;;;;;19.93;13.87;;;;;;;11.72;89.91;100643.41;5047689;28;20213;-69
2023/05/02 01:44:23;;;;;;;17.83;11.70;;;;;;;11.73;90.46;100646.97;5031850;28;20463;-69
2023/05/02 01:46:52;;;;;;;17.90;12.30;;;;;;;11.74;90.50;100646.09;5045028;28;20228;-69
2023/05/02 01:49:19;;;;;;;19.47;13.73;;;;;;;11.77;90.22;100646.13;5048768;28;20202;-70
2023/05/02 01:51:48;;;;;;;21.00;14.37;;;;;;;11.75;90.28;100646.09;5035397;28;20624;-71
2023/05/02 01:54:16;;;;;;;21.93;14.37;;;;;;;11.71;90.68;100651.34;5039335;28;20663;-71
2023/05/02 01:56:44;;;;;;;23.77;15.93;;;;;;;11.70;90.88;100653.13;5042463;28;20622;-69
2023/05/02 01:59:17;;;;;;;23.77;16.33;;;;;;;11.68;91.30;100656.63;5045448;28;20202;-70
2023/05/02 02:01:44;;;;;;;22.93;16.40;;;;;;;11.61;91.92;100659.19;5040828;28;20214;-72
2023/05/02 02:04:13;;;;;;;23.33;16.17;;;;;;;11.52;92.48;100653.75;5046093;28;20300;-69
2023/05/02 02:06:46;;;;;;;25.33;16.97;;;;;;;11.53;92.75;100662.59;5044122;28;20867;-69
2023/05/02 02:09:13;;;;;;;23.47;17.23;;;;;;;11.42;93.71;100656.25;5046892;28;20198;-71
2023/05/02 02:11:48;;;;;;;24.63;17.30;;;;;;;11.27;94.34;100665.78;5042350;28;20221;-69
2023/05/02 02:14:20;;;;;;;25.07;18.30;;;;;;;11.12;95.87;100673.47;5047738;28;20205;-71
2023/05/02 02:16:52;;;;;;;27.23;17.87;;;;;;;11.07;96.49;100672.50;5045721;28;20205;-69
2023/05/02 02:19:20;;;;;;;27.87;18.37;;;;;;;10.93;97.44;100682.00;5045970;28;20295;-71
2023/05/02 02:21:47;;;;;;;27.57;18.53;;;;;;;10.77;98.86;100683.50;5049641;28;20257;-69
2023/05/02 02:24:16;;;;;;;30.07;18.90;;;;;;;10.80;99.32;100695.91;5047586;28;20227;-69
2023/05/02 02:26:42;;;;;;;27.10;18.73;;;;;;;10.81;99.31;100689.75;5045902;28;20229;-69
2023/05/02 02:29:09;;;;;;;28.73;19.30;;;;;;;10.75;99.92;100695.81;5045672;28;20195;-71
2023/05/02 02:31:37;;;;;;;28.63;19.47;;;;;;;10.72;100.00;100687.81;5048250;28;20228;-71
2023/05/02 02:34:05;;;;;;;26.90;17.97;;;;;;;10.49;100.00;100691.84;5048252;28;20207;-68
2023/05/02 02:36:38;;;;;;;28.77;18.93;;;;;;;10.38;100.00;100682.78;5029611;28;20228;-72
2023/05/02 02:39:07;;;;;;;33.57;21.93;;;;;;;10.41;100.00;100680.22;5041509;28;20288;-69
2023/05/02 02:41:42;;;;;;;34.63;22.77;;;;;;;10.38;100.00;100682.78;5040686;28;20217;-71
2023/05/02 02:44:30;;;;;;;36.20;22.63;;;;;;;10.38;100.00;100686.31;5047455;28;20648;-69
2023/05/02 02:47:08;;;;;;;34.90;22.60;;;;;;;10.39;100.00;100692.50;5038362;28;20237;-69
2023/05/02 02:49:37;;;;;;;37.23;23.83;;;;;;;10.32;100.00;100702.97;5046360;28;20651;-68
2023/05/02 02:52:41;;;;;;;35.33;23.43;;;;;;;10.24;100.00;100703.69;5049844;28;20253;-69
2023/05/02 02:55:28;;;;;;;35.37;23.17;;;;;;;10.21;100.00;100709.81;5044862;28;20628;-69
2023/05/02 02:58:02;;;;;;;37.43;23.73;;;;;;;10.14;100.00;100707.88;5007850;28;20209;-69
2023/05/02 03:00:31;;;;;;;35.77;23.50;;;;;;;10.02;100.00;100707.66;5046366;28;20224;-70
2023/05/02 03:02:57;;;;;;;38.77;24.80;;;;;;;10.00;100.00;100714.63;5047224;28;20206;-69
2023/05/02 03:05:24;;;;;;;37.07;24.57;;;;;;;10.07;100.00;100723.63;5052790;28;20216;-71
2023/05/02 03:07:51;;;;;;;38.03;24.40;;;;;;;9.86;100.00;100726.69;5050170;28;20648;-69
2023/05/02 03:10:17;;;;;;;38.17;24.03;;;;;;;9.88;100.00;100739.09;5054962;28;21137;-69
2023/05/02 03:12:44;;;;;;;37.50;23.80;;;;;;;9.74;100.00;100735.25;5026157;28;20670;-68
2023/05/02 03:16:04;;;;;;;38.73;24.33;;;;;;;9.77;100.00;100748.53;5048029;28;20210;-71
2023/05/02 03:18:30;;;;;;;38.30;24.37;;;;;;;9.66;100.00;100755.34;5048253;28;20223;-69
2023/05/02 03:20:57;;;;;;;39.57;24.37;;;;;;;9.52;100.00;100748.81;5044522;28;20216;-70
2023/05/02 03:23:23;;;;;;;40.97;26.03;;;;;;;9.52;100.00;100752.38;5044599;28;20249;-69
2023/05/02 03:25:50;;;;;;;36.40;23.33;;;;;;;9.41;100.00;100754.75;5058473;28;20265;-69
2023/05/02 03:28:16;;;;;;;41.53;26.67;;;;;;;9.59;100.00;100754.28;5043192;28;20531;-69
2023/05/02 03:30:42;;;;;;;40.60;25.97;;;;;;;9.63;100.00;100757.94;5027509;28;20230;-70
2023/05/02 03:33:09;;;;;;;41.37;26.57;;;;;;;9.56;100.00;100762.16;5044082;28;20700;-70
2023/05/02 03:35:35;;;;;;;40.97;26.47;;;;;;;9.61;100.00;100759.66;5045600;28;20282;-68
2023/05/02 03:38:02;;;;;;;42.43;26.30;;;;;;;9.56;100.00;100761.25;5037720;28;20692;-69
2023/05/02 03:40:28;;;;;;;40.37;25.27;;;;;;;9.38;100.00;100759.09;5030570;28;20231;-69
2023/05/02 03:42:54;;;;;;;44.27;25.93;;;;;;;9.29;100.00;100759.75;5049580;28;20191;-69
2023/05/02 03:45:21;;;;;;;41.80;25.70;;;;;;;9.20;100.00;100759.50;5050793;28;20278;-68
2023/05/02 03:47:47;;;;;;;39.80;26.03;;;;;;;9.22;100.00;100768.41;5046965;28;20430;-71
2023/05/02 03:50:13;;;;;;;41.90;27.10;;;;;;;9.21;100.00;100766.63;5046201;28;20239;-72
2023/05/02 03:52:40;;;;;;;42.27;26.57;;;;;;;9.25;100.00;100767.59;5037565;28;20211;-70
2023/05/02 03:55:07;;;;;;;44.53;27.53;;;;;;;9.36;100.00;100766.97;5044942;28;20264;-69
2023/05/02 03:57:33;;;;;;;37.73;24.20;;;;;;;9.43;100.00;100778.59;5041189;28;20202;-72
2023/05/02 03:59:59;;;;;;;43.87;26.07;;;;;;;9.49;100.00;100780.47;5045720;28;20671;-69
2023/05/02 04:02:26;;;;;;;42.40;25.53;;;;;;;9.79;100.00;100794.44;5052384;28;20248;-71
2023/05/02 04:04:53;;;;;;;40.50;26.27;;;;;;;9.79;100.00;100790.91;5046212;28;20211;-69
2023/05/02 04:07:19;;;;;;;42.73;25.33;;;;;;;9.93;100.00;100787.69;5027581;28;20707;-69
2023/05/02 04:09:46;;;;;;;42.57;26.20;;;;;;;9.99;100.00;100798.41;5046269;28;20687;-69
2023/05/02 04:12:14;;;;;;;45.60;27.07;;;;;;;10.13;100.00;100792.53;5035436;28;20219;-70
2023/05/02 04:14:40;;;;;;;45.70;27.73;;;;;;;10.25;100.00;100790.19;5056848;28;20663;-69
2023/05/02 04:17:07;;;;;;;45.87;28.60;;;;;;;10.45;100.00;100801.19;5049498;28;20200;-69
2023/05/02 04:19:34;;;;;;;45.40;27.20;;;;;;;10.54;100.00;100804.03;5038220;28;20195;-70
2023/05/02 04:22:03;;;;;;;43.63;27.73;;;;;;;10.77;100.00;100804.47;5030972;28;20219;-69
2023/05/02 04:24:29;;;;;;;46.30;29.10;;;;;;;10.90;100.00;100818.00;5044452;28;20218;-69
2023/05/02 04:26:56;;;;;;;48.30;28.37;;;;;;;10.91;100.00;100819.78;5043024;28;20639;-69
2023/05/02 04:29:22;;;;;;;48.70;29.57;;;;;;;11.00;100.00;100819.06;5047807;28;20278;-70
2023/05/02 04:31:50;;;;;;;53.23;31.10;;;;;;;11.10;100.00;100820.09;5050901;28;20228;-71
2023/05/02 04:34:16;;;;;;;50.13;30.13;;;;;;;11.12;100.00;100832.53;5040141;28;20617;-70
2023/05/02 04:36:46;;;;;;;52.03;31.27;;;;;;;11.16;100.00;100830.81;5028090;28;20250;-71
2023/05/02 04:39:12;;;;;;;50.37;29.00;;;;;;;11.22;100.00;100830.94;5048045;28;20280;-71
2023/05/02 04:41:38;;;;;;;48.97;29.43;;;;;;;11.24;100.00;100835.41;5044518;28;20726;-71
2023/05/02 04:44:05;;;;;;;49.60;29.80;;;;;;;11.26;100.00;100840.75;5055374;28;20215;-71
2023/05/02 04:46:31;;;;;;;53.50;30.70;;;;;;;11.23;100.00;100846.00;5046351;28;20199;-71
2023/05/02 04:48:58;;;;;;;51.50;29.90;;;;;;;11.35;100.00;100842.66;5050413;28;20423;-71
2023/05/02 04:51:24;;;;;;;51.93;31.03;;;;;;;11.40;100.00;100843.63;5042884;28;20315;-71
2023/05/02 04:53:50;;;;;;;50.90;30.40;;;;;;;11.44;100.00;100853.41;5048472;28;20233;-71
2023/05/02 04:56:17;;;;;;;55.00;31.13;;;;;;;11.47;100.00;100849.06;5046162;28;20561;-71
2023/05/02 04:58:43;;;;;;;53.30;31.27;;;;;;;11.55;99.91;100857.13;5057319;28;20228;-71
2023/05/02 05:01:09;;;;;;;54.23;29.87;;;;;;;11.56;99.44;100843.00;5048062;28;20628;-71
2023/05/02 05:03:36;;;;;;;55.93;30.30;;;;;;;11.67;97.79;100857.38;5046813;28;20252;-71
2023/05/02 05:06:03;;;;;;;51.87;29.90;;;;;;;11.65;97.27;100861.75;5047076;28;20222;-71
2023/05/02 05:08:29;;;;;;;50.13;28.57;;;;;;;11.68;97.38;100860.91;5048708;28;20203;-71
2023/05/02 05:10:56;;;;;;;47.73;27.63;;;;;;;11.71;97.60;100868.91;5051431;28;20628;-71
2023/05/02 05:13:22;;;;;;;51.33;28.90;;;;;;;11.71;97.47;100871.56;5047542;28;20283;-71
2023/05/02 05:15:48;;;;;;;52.03;29.63;;;;;;;11.82;96.91;100872.66;5049081;28;20273;-71
2023/05/02 05:18:15;;;;;;;55.40;28.67;;;;;;;11.87;95.76;100876.28;5042858;28;20227;-70
2023/05/02 05:20:41;;;;;;;52.10;28.83;;;;;;;11.89;95.42;100880.75;5035542;28;20223;-71
2023/05/02 05:23:08;;;;;;;50.83;29.13;;;;;;;12.07;94.12;100884.56;5052069;28;20730;-67
2023/05/02 05:25:34;;;;;;;52.33;30.13;;;;;;;12.12;93.76;100875.78;5040295;28;20294;-68
2023/05/02 05:28:00;;;;;;;54.23;29.77;;;;;;;12.17;92.90;100882.06;5052473;28;20204;-68
2023/05/02 05:30:27;;;;;;;50.00;29.60;;;;;;;12.22;93.07;100895.41;5050137;28;20269;-68
2023/05/02 05:32:53;;;;;;;52.43;29.80;;;;;;;12.27;92.54;100893.72;5034744;28;20198;-67
2023/05/02 05:35:20;;;;;;;53.63;30.30;;;;;;;12.34;92.38;100897.34;5051031;28;20281;-67
2023/05/02 05:37:46;;;;;;;50.43;28.63;;;;;;;12.32;91.95;100901.72;5052723;28;20196;-67
2023/05/02 05:40:13;;;;;;;49.67;29.50;;;;;;;12.30;92.61;100903.47;5052988;28;20211;-68
2023/05/02 05:42:39;;;;;;;52.30;27.83;;;;;;;12.38;92.95;100913.34;5058668;28;20232;-68
2023/05/02 05:45:07;;;;;;;54.33;29.13;;;;;;;12.52;91.52;100909.13;5052720;28;20224;-68
2023/05/02 05:47:34;;;;;;;51.40;28.00;;;;;;;12.71;90.96;100917.34;5049000;28;20210;-68
2023/05/02 05:50:00;;;;;;;51.70;29.03;;;;;;;12.83;89.46;100920.19;5053714;28;20230;-68
2023/05/02 05:52:27;;;;;;;50.80;27.87;;;;;;;12.97;88.60;100913.25;5046223;28;20290;-67
2023/05/02 05:54:57;;;;;;;47.73;27.63;;;;;;;13.14;87.54;100916.09;5056995;28;20197;-68
2023/05/02 05:57:23;;;;;;;48.47;28.07;;;;;;;13.32;87.43;100920.78;5049040;28;20212;-68
2023/05/02 05:59:50;;;;;;;50.83;27.70;;;;;;;13.53;86.12;100920.09;5052228;28;20203;-69
2023/05/02 06:02:18;;;;;;;45.70;27.17;;;;;;;13.55;84.58;100924.53;5052161;28;20311;-73
2023/05/02 06:04:47;;;;;;;50.73;27.60;;;;;;;13.66;83.93;100920.25;5031261;28;20201;-77
2023/05/02 06:07:14;;;;;;;46.60;25.17;;;;;;;13.76;83.84;100932.75;5042782;28;20202;-72
2023/05/02 06:09:40;;;;;;;50.37;27.83;;;;;;;13.86;83.17;100933.72;5039546;28;20209;-75
2023/05/02 06:12:07;;;;;;;47.40;26.07;;;;;;;14.01;82.65;100935.63;5055720;28;20263;-77
2023/05/02 06:14:33;;;;;;;44.20;25.03;;;;;;;13.97;81.57;100940.00;5063802;28;20203;-77
2023/05/02 06:17:00;;;;;;;47.57;26.83;;;;;;;14.03;81.63;100945.41;5046727;28;20206;-77
2023/05/02 06:19:26;;;;;;;48.53;26.93;;;;;;;14.06;81.95;100942.78;5050290;28;20200;-77
2023/05/02 06:21:52;;;;;;;42.37;24.17;;;;;;;14.14;79.98;100950.81;5053059;28;21134;-77
2023/05/02 06:24:19;;;;;;;42.37;23.90;;;;;;;14.35;79.78;100950.06;5049186;28;20203;-79
2023/05/02 06:26:45;;;;;;;47.43;26.00;;;;;;;14.40;78.92;100959.00;5049648;28;20215;-79
2023/05/02 06:29:12;;;;;;;38.17;22.50;;;;;;;14.59;78.13;100963.63;5044769;28;20264;-79
2023/05/02 06:31:38;;;;;;;38.37;21.97;;;;;;;14.56;77.42;100960.03;5047120;28;20227;-79
2023/05/02 06:34:05;;;;;;;37.33;21.23;;;;;;;14.59;77.97;100954.72;5039423;28;20309;-78
2023/05/02 06:36:31;;;;;;;38.50;21.50;;;;;;;14.64;77.24;100975.19;5056195;28;20253;-79
2023/05/02 06:38:58;;;;;;;30.83;17.77;;;;;;;14.47;75.26;100973.31;5049207;28;20195;-78
2023/05/02 06:41:24;;;;;;;28.27;15.87;;;;;;;14.33;75.26;100970.50;5044188;28;20701;-77
2023/05/02 06:43:50;;;;;;;28.80;16.30;;;;;;;14.37;76.50;100983.84;5048229;28;20222;-79
2023/05/02 06:46:19;;;;;;;25.37;15.97;;;;;;;14.63;76.94;100975.19;5050375;28;20222;-77
2023/05/02 06:48:45;;;;;;;31.37;17.60;;;;;;;14.61;75.26;100977.84;5052173;28;20217;-77
2023/05/02 06:51:13;;;;;;;32.13;17.73;;;;;;;14.61;75.77;100991.16;5047935;28;20219;-79
2023/05/02 06:53:40;;;;;;;32.73;17.57;;;;;;;14.48;75.59;100988.41;5043435;28;20199;-79
2023/05/02 06:56:07;;;;;;;29.33;17.53;;;;;;;14.57;76.03;100992.03;5048142;28;20225;-79
2023/05/02 06:58:33;;;;;;;32.33;18.47;;;;;;;14.65;75.67;100990.31;5052561;28;20198;-76
2023/05/02 07:00:59;;;;;;;32.13;18.33;;;;;;;14.59;75.85;100998.28;5051257;28;20239;-79
2023/05/02 07:03:28;;;;;;;31.60;18.10;;;;;;;14.64;75.60;101000.97;5044880;28;20622;-78
2023/05/02 07:05:55;;;;;;;31.70;17.97;;;;;;;14.54;75.64;101007.13;5040402;28;20709;-77
2023/05/02 07:08:22;;;;;;;31.73;18.10;;;;;;;14.47;76.22;101010.63;5058161;28;20285;-79
2023/05/02 07:10:49;;;;;;;34.20;17.67;;;;;;;14.47;76.62;101022.19;5042777;28;20218;-78
2023/05/02 07:13:16;;;;;;;31.27;16.77;;;;;;;14.39;77.03;101018.50;5045105;28;20207;-78
2023/05/02 07:15:42;;;;;;;34.10;18.03;;;;;;;14.27;77.61;101018.41;5049515;28;20198;-78
2023/05/02 07:18:08;;;;;;;34.50;18.23;;;;;;;14.02;78.67;101019.97;5048121;28;20237;-75
2023/05/02 07:20:35;;;;;;;36.20;19.30;;;;;;;13.99;78.41;101028.81;5048463;28;20599;-71
2023/05/02 07:23:01;;;;;;;31.27;18.80;;;;;;;14.00;78.98;101027.03;5050123;28;20201;-69
2023/05/02 07:25:28;;;;;;;32.83;17.93;;;;;;;14.26;78.49;101027.28;5047595;28;20233;-70
2023/05/02 07:27:54;;;;;;;35.10;18.43;;;;;;;14.41;78.43;101028.31;5047692;28;20220;-77
2023/05/02 07:30:20;;;;;;;32.43;18.43;;;;;;;14.37;77.92;101031.81;5043833;28;20226;-75
2023/05/02 07:32:47;;;;;;;33.03;18.20;;;;;;;14.23;78.47;101036.16;5063201;28;20682;-75
2023/05/02 07:35:13;;;;;;;32.93;18.67;;;;;;;14.31;78.62;101038.88;5043071;28;20202;-73
2023/05/02 07:37:40;;;;;;;34.40;19.20;;;;;;;14.13;79.02;101036.06;5040149;28;20619;-77
2023/05/02 07:40:08;;;;;;;34.77;19.63;;;;;;;14.25;78.92;101044.16;5043037;28;20296;-77
2023/05/02 07:42:35;;;;;;;32.30;18.17;;;;;;;14.15;79.91;101043.19;5045875;28;20199;-77
2023/05/02 07:45:01;;;;;;;31.67;17.10;;;;;;;13.99;79.65;101049.22;5042272;28;20197;-77
2023/05/02 07:47:29;;;;;;;28.43;15.90;;;;;;;14.04;79.22;101047.53;5039390;28;20646;-72
2023/05/02 07:49:55;;;;;;;27.10;15.27;;;;;;;14.01;78.91;101052.81;5039372;28;20524;-70
2023/05/02 07:52:22;;;;;;;24.60;13.93;;;;;;;13.90;78.90;101054.47;5049340;28;20210;-70
2023/05/02 07:54:48;;;;;;;25.87;13.60;;;;;;;14.03;78.19;101059.94;5045336;28;20196;-69
2023/05/02 07:57:15;;;;;;;26.03;13.53;;;;;;;14.11;77.59;101068.00;5048147;28;20731;-70
2023/05/02 07:59:41;;;;;;;23.87;12.97;;;;;;;13.99;78.50;101071.41;5055452;28;20236;-71
2023/05/02 08:02:07;;;;;;;23.00;12.87;;;;;;;13.73;79.58;101067.59;5051266;28;20246;-69
2023/05/02 08:04:34;;;;;;;22.03;11.33;;;;;;;13.61;79.98;101084.31;5059684;28;20195;-70
2023/05/02 08:07:00;;;;;;;20.07;10.47;;;;;;;13.47;80.23;101064.59;5053428;28;20217;-69
2023/05/02 08:09:26;;;;;;;17.43;9.80;;;;;;;13.67;79.18;101073.75;5053623;28;20222;-68
2023/05/02 08:11:53;;;;;;;18.47;8.90;;;;;;;14.05;77.35;101079.50;5057304;28;20726;-69
2023/05/02 08:14:19;;;;;;;15.37;8.60;;;;;;;14.05;76.74;101087.47;5040005;28;20202;-69
2023/05/02 08:16:46;;;;;;;16.53;8.93;;;;;;;14.19;75.93;101082.28;5044262;28;20245;-68
2023/05/02 08:19:12;;;;;;;14.60;8.03;;;;;;;14.32;75.26;101083.28;5041724;28;20195;-68
2023/05/02 08:21:39;;;;;;;14.20;7.40;;;;;;;14.30;74.82;101085.94;5043497;28;20295;-69
2023/05/02 08:24:05;;;;;;;14.70;8.90;;;;;;;14.32;74.83;101093.94;5044739;28;20288;-68
2023/05/02 08:26:32;;;;;;;16.10;8.73;;;;;;;14.35;74.42;101099.28;5040040;28;20235;-68
2023/05/02 08:28:58;;;;;;;18.30;8.20;;;;;;;14.25;76.38;101102.75;5045197;28;20271;-69
2023/05/02 08:31:25;;;;;;;17.27;9.27;;;;;;;14.15;76.03;101098.22;5056430;28;20744;-69
2023/05/02 08:33:51;;;;;;;16.50;9.13;;;;;;;14.01;76.47;101103.41;5060533;28;20198;-68
2023/05/02 08:36:18;;;;;;;15.53;8.80;;;;;;;14.25;75.84;101106.31;5056744;28;20202;-69
2023/05/02 08:38:45;;;;;;;19.50;9.60;;;;;;;14.22;76.40;101113.38;5051353;28;20279;-68
2023/05/02 08:41:16;;;;;;;17.27;9.33;;;;;;;14.40;74.35;101105.56;5054638;28;20222;-68
2023/05/02 08:43:46;;;;;;;19.50;9.33;;;;;;;14.60;74.64;101108.44;5053837;28;20719;-68
2023/05/02 08:46:15;;;;;;;18.87;9.97;;;;;;;15.21;72.45;101116.88;5054398;28;20242;-71
2023/05/02 08:48:44;;;;;;;18.03;10.40;;;;;;;15.71;69.87;101114.53;5060561;28;20304;-77
2023/05/02 08:51:13;;;;;;;19.73;10.23;;;;;;;16.13;68.70;101115.56;5048375;28;20218;-77
2023/05/02 08:53:40;;;;;;;20.17;10.57;;;;;;;15.61;69.93;101123.41;5059928;28;20203;-78
2023/05/02 08:56:08;;;;;;;19.00;9.87;;;;;;;15.79;69.51;101123.47;5056577;28;20222;-78
2023/05/02 08:58:38;;;;;;;16.43;9.97;;;;;;;15.33;70.79;101136.56;5054260;28;20218;-79
2023/05/02 09:01:12;;;;;;;20.07;9.67;;;;;;;15.29;71.21;101134.75;5043170;28;20306;-79
2023/05/02 09:03:39;;;;;;;15.53;9.03;;;;;;;15.65;69.00;101135.88;5045702;28;20420;-77
2023/05/02 09:06:16;;;;;;;18.50;9.67;;;;;;;15.85;69.54;101142.19;5040490;28;20211;-76
2023/05/02 09:08:45;;;;;;;15.47;7.70;;;;;;;16.06;67.32;101148.50;5044346;28;20674;-71
2023/05/02 09:11:12;;;;;;;14.70;8.17;;;;;;;16.05;67.49;101146.72;5037772;28;20310;-70
2023/05/02 09:13:50;;;;;;;13.47;7.40;;;;;;;15.78;67.17;101140.38;5043591;28;20258;-70
2023/05/02 09:16:21;;;;;;;16.20;8.30;;;;;;;15.66;67.37;101143.91;5039314;28;20192;-69
2023/05/02 09:18:50;;;;;;;14.50;7.77;;;;;;;15.71;67.98;101148.38;5043161;28;20191;-69
2023/05/02 09:21:18;;;;;;;14.17;7.97;;;;;;;15.57;67.98;101154.47;5038310;28;20219;-70
2023/05/02 09:23:50;;;;;;;14.67;8.00;;;;;;;15.49;69.43;101153.53;5045183;28;20206;-69
2023/05/02 09:26:30;;;;;;;16.13;7.97;;;;;;;15.54;68.83;101157.13;5039816;28;20247;-70
2023/05/02 09:28:58;;;;;;;13.37;7.83;;;;;;;15.73;67.05;101157.28;5042270;28;20190;-72
2023/05/02 09:31:29;;;;;;;12.87;7.97;;;;;;;16.29;65.08;101147.66;5045769;28;20223;-71
2023/05/02 09:34:16;;;;;;;11.90;7.60;;;;;;;16.43;63.15;101154.84;5044286;28;20198;-70
2023/05/02 09:36:44;;;;;;;12.03;7.70;;;;;;;16.81;62.65;101162.91;5046259;28;20187;-70
2023/05/02 09:39:16;;;;;;;12.33;7.53;;;;;;;16.91;62.33;101154.91;5038327;28;20227;-70
2023/05/02 09:41:44;;;;;;;13.07;7.03;;;;;;;17.11;61.36;101156.66;5049200;28;20223;-70
2023/05/02 09:44:12;;;;;;;12.90;7.13;;;;;;;16.79;61.96;101154.88;5044163;28;20194;-70
2023/05/02 09:46:40;;;;;;;12.33;7.67;;;;;;;16.45;63.92;101155.72;5044675;28;20361;-69
2023/05/02 09:49:08;;;;;;;11.77;7.43;;;;;;;16.65;61.78;101155.75;5040192;28;20282;-68
2023/05/02 09:51:35;;;;;;;14.33;7.73;;;;;;;17.10;61.07;101158.44;5044242;28;20756;-70
2023/05/02 09:54:02;;;;;;;14.03;8.10;;;;;;;16.97;61.83;101161.13;5046798;28;20612;-70
2023/05/02 09:56:28;;;;;;;13.73;8.00;;;;;;;16.63;61.94;101160.19;5040310;28;20609;-69
2023/05/02 09:59:14;;;;;;;13.17;7.50;;;;;;;16.85;61.05;101164.72;5046281;28;20256;-69
2023/05/02 10:01:41;;;;;;;12.30;6.53;;;;;;;16.63;61.50;101169.13;5046124;28;20300;-70
2023/05/02 10:04:15;;;;;;;15.03;7.47;;;;;;;16.89;61.01;101161.16;5041858;28;20670;-69
2023/05/02 10:06:46;;;;;;;14.30;7.50;;;;;;;17.12;60.09;101161.13;5044764;28;20215;-70
2023/05/02 10:09:14;;;;;;;12.17;7.33;;;;;;;17.71;58.70;101150.31;5041798;28;20607;-69
2023/05/02 10:11:50;;;;;;;13.63;8.07;;;;;;;18.02;56.36;101159.13;5043619;28;20709;-68
2023/05/02 10:14:19;;;;;;;13.50;7.43;;;;;;;17.43;58.66;101151.25;5040094;28;20614;-69
2023/05/02 10:16:54;;;;;;;11.97;7.33;;;;;;;17.27;57.36;101149.53;5041786;28;20218;-69
2023/05/02 10:19:28;;;;;;;12.50;7.37;;;;;;;17.55;55.21;101160.13;5041775;28;20195;-68
2023/05/02 10:21:56;;;;;;;12.80;7.73;;;;;;;17.34;54.49;101152.19;5044675;28;20645;-69
2023/05/02 10:24:23;;;;;;;14.13;7.43;;;;;;;18.10;53.97;101151.94;5021982;28;20222;-70
2023/05/02 10:26:53;;;;;;;12.30;6.90;;;;;;;18.36;51.09;101146.41;5039565;28;20226;-69
2023/05/02 10:29:20;;;;;;;12.53;7.43;;;;;;;18.28;50.48;101150.94;5039697;28;20228;-69
2023/05/02 10:31:48;;;;;;;12.90;7.63;;;;;;;18.14;50.27;101140.28;5065632;23;20218;-72
2023/05/02 10:34:16;;;;;;;13.47;7.30;;;;;;;18.04;50.82;101146.63;5038530;28;20206;-71
2023/05/02 10:36:43;;;;;;;12.10;7.43;;;;;;;18.03;51.50;101143.94;5026782;28;20222;-71
2023/05/02 10:39:09;;;;;;;13.33;7.63;;;;;;;18.28;51.91;101134.84;5036748;28;20203;-71
2023/05/02 10:41:38;;;;;;;15.70;8.07;;;;;;;18.28;50.46;101145.56;5036979;28;20269;-71
2023/05/02 10:44:06;;;;;;;12.60;7.03;;;;;;;18.32;50.12;101133.91;5040222;28;20222;-72
2023/05/02 10:46:36;;;;;;;12.10;7.10;;;;;;;18.31;50.28;101136.59;5022684;28;20798;-70
2023/05/02 10:49:03;;;;;;;12.50;7.83;;;;;;;18.16;52.74;101127.78;5037132;28;20195;-70
2023/05/02 10:51:33;;;;;;;10.90;6.53;;;;;;;18.13;48.95;101133.16;5037680;28;20526;-70
2023/05/02 10:54:24;;;;;;;9.43;5.67;;;;;;;18.51;47.99;101125.75;5015329;28;20198;-71
2023/05/02 10:57:04;;;;;;;10.73;6.67;;;;;;;18.94;46.97;101121.84;5038878;28;20202;-70
2023/05/02 10:59:40;;;;;;;10.10;5.80;;;;;;;19.36;46.67;101120.53;5035426;28;20203;-74
2023/05/02 11:02:26;;;;;;;10.43;6.30;;;;;;;19.65;44.98;101114.88;5015566;28;20226;-73
2023/05/02 11:05:01;;;;;;;10.77;6.60;;;;;;;19.96;44.52;101093.81;5036484;28;20205;-72
2023/05/02 11:07:30;;;;;;;11.30;6.50;;;;;;;19.56;44.97;101100.63;5035688;28;20228;-73
2023/05/02 11:10:15;;;;;;;9.90;6.43;;;;;;;19.79;44.35;101117.38;5015768;28;20298;-71
2023/05/02 11:12:53;;;;;;;9.53;5.83;;;;;;;19.67;44.38;101102.28;5036227;28;20596;-70
2023/05/02 11:15:26;;;;;;;11.70;6.70;;;;;;;19.03;46.56;101097.59;5041076;28;20206;-70
2023/05/02 11:18:05;;;;;;;12.33;6.90;;;;;;;18.86;48.53;101099.56;5049074;28;20222;-70
2023/05/02 11:20:32;;;;;;;12.90;7.57;;;;;;;18.68;49.11;101108.66;5042470;28;20198;-73